This is the latest recevied weather packets stored in our database for station/object SV9TNF-56. If no packets are shown the sender has not sent any weather packets the latest 10 day(s).
| Time | Temp. | Humidity | Pressure | Rain* | Wind** | Luminosity | Snow |
|---|---|---|---|---|---|---|---|
| 1788063429 | 23.33° C | 73% | 1018.3 hPa | 0 mm | 8.05 m/s, 78° | - | - |
| 1788063129 | 23.33° C | 72% | 1018.3 hPa | 0 mm | 2.68 m/s, 174° | - | - |
| 1788062829 | 23.33° C | 72% | 1018 hPa | 0 mm | 14.31 m/s, 104° | - | - |
| 1788062529 | 22.78° C | 71% | 1018 hPa | 0 mm | 6.26 m/s, 132° | - | - |
| 1788062229 | 22.78° C | 71% | 1018 hPa | 0 mm | 8.49 m/s, 104° | - | - |
| 1788061929 | 23.33° C | 71% | 1018 hPa | 0 mm | 7.15 m/s, 104° | - | - |
| 1788061629 | 23.33° C | 71% | 1018 hPa | 0 mm | 6.26 m/s, 132° | - | - |
| 1788061329 | 23.33° C | 72% | 1018 hPa | 0 mm | 12.96 m/s, 84° | - | - |
| 1788061029 | 23.33° C | 73% | 1018 hPa | 0 mm | 4.47 m/s, 150° | - | - |
| 1788060728 | 23.33° C | 72% | 1018 hPa | 0 mm | 14.75 m/s, 120° | - | - |
| 1788060428 | 23.33° C | 72% | 1018 hPa | 0 mm | 16.99 m/s, 84° | - | - |
| 1788060128 | 23.33° C | 72% | 1018.3 hPa | 0 mm | 9.83 m/s, 114° | - | - |
| 1788059834 | 23.33° C | 71% | 1018.3 hPa | 0 mm | 14.31 m/s, 102° | - | - |
| 1788059528 | 23.33° C | 71% | 1018.6 hPa | 0 mm | 13.86 m/s, 132° | - | - |
| 1788059228 | 23.33° C | 70% | 1018.6 hPa | 0 mm | 8.49 m/s, 138° | - | - |
| 1788058928 | 23.33° C | 69% | 1018.6 hPa | 0 mm | 8.94 m/s, 110° | - | - |
| 1788058628 | 23.33° C | 68% | 1019 hPa | 0 mm | 4.92 m/s, 160° | - | - |
| 1788058328 | 23.33° C | 67% | 1018.6 hPa | 0 mm | 3.13 m/s, 84° | - | - |
| 1788058027 | 23.33° C | 66% | 1019 hPa | 0 mm | 2.24 m/s, 156° | - | - |
| 1788057727 | 23.33° C | 67% | 1019 hPa | 0 mm | 8.49 m/s, 168° | - | - |
| 1788057427 | 23.33° C | 67% | 1019 hPa | 0 mm | 0 m/s | - | - |
| 1788057127 | 23.33° C | 67% | 1019 hPa | 0 mm | 0 m/s | - | - |
| 1788056827 | 23.33° C | 67% | 1019.3 hPa | 0 mm | 2.24 m/s, 201° | - | - |
| 1788056527 | 23.33° C | 66% | 1019 hPa | 0 mm | 7.6 m/s, 222° | - | - |
| 1788056227 | 23.33° C | 66% | 1019 hPa | 0 mm | 0 m/s | - | - |
* Rain latest hour (hover to see other rain measurements)
** Current wind speed in m/s (hover to see current wind gust speed)